Flight Track Log - Related Links

Times and Time Zones

All times are in EDT time to prevent confusion due to time zone crossing. See the IBE483 flight status page for this flight to view local times or setup timezone preferences in your user account.

Time Position Orientation Groundspeed Altitude Reporting Facility
EDT Latitude Longitude Course Direction KTS MPH feet Rate Location/Type
Thu 04:17:00 PM 43.2255 -5.7487 148° Southeast  Level Estimated
Thu 04:18:00 PM 43.1409 -5.6777 149° Southeast  Level Estimated
Thu 04:19:00 PM 43.0563 -5.6069 149° Southeast  Level Estimated
Thu 04:20:00 PM 42.9715 -5.5363 149° Southeast  Level Estimated
Thu 04:21:00 PM 42.8868 -5.4659 149° Southeast  Level Estimated
Thu 04:22:00 PM 42.8020 -5.3957 149° Southeast  Level Estimated
Thu 04:23:00 PM 42.7172 -5.3257 149° Southeast  Level Estimated
Thu 04:24:00 PM 42.6323 -5.2558 149° Southeast  Level Estimated
Thu 04:25:00 PM 42.5474 -5.1862 149° Southeast  Level Estimated
Thu 04:26:00 PM 42.4624 -5.1167 149° Southeast  Level Estimated
Thu 04:27:00 PM 42.3774 -5.0475 149° Southeast  Level Estimated
Thu 04:28:00 PM 42.2924 -4.9784 149° Southeast  Level Estimated
Thu 04:29:00 PM 42.2073 -4.9095 149° Southeast  Level Estimated
Thu 04:30:00 PM 42.1221 -4.8408 149° Southeast  Level Estimated
Thu 04:31:00 PM 42.0370 -4.7723 149° Southeast  Level Estimated
Thu 04:32:00 PM 41.9518 -4.7040 149° Southeast  Level Estimated
Thu 04:33:00 PM 41.8665 -4.6358 149° Southeast  Level Estimated
Thu 04:34:00 PM 41.7812 -4.5679 149° Southeast  Level Estimated
Thu 04:35:00 PM 41.6959 -4.5001 149° Southeast  Level Estimated
Thu 04:36:00 PM 41.6105 -4.4325 149° Southeast  Level Estimated
Thu 04:37:00 PM 41.5251 -4.3650 149° Southeast  Level Estimated
Thu 04:38:00 PM 41.4397 -4.2978 149° Southeast  Level Estimated
Thu 04:39:00 PM 41.3542 -4.2307 149° Southeast  Level Estimated
Thu 04:40:00 PM 41.2686 -4.1638 150° Southeast  Level Estimated
Thu 04:41:00 PM 41.1831 -4.0971 150° Southeast  Level Estimated
Thu 04:42:00 PM 41.0975 -4.0306 150° Southeast  Level Estimated
Thu 04:43:00 PM 41.0118 -3.9642 150° Southeast  Level Estimated
Thu 04:44:00 PM 40.9261 -3.8980 150° Southeast  Level Estimated
Thu 04:45:00 PM 40.8404 -3.8319 150° Southeast  Level Estimated
Thu 04:46:00 PM 40.7547 -3.7661 150° Southeast  Level Estimated
Thu 04:47:00 PM 40.6689 -3.7004 150° Southeast  Level Estimated
Thu 04:48:00 PM 40.5830 -3.6349 150° Southeast  Level Estimated
Thu 04:49:00 PM 40.4972 -3.5695 150° Southeast  Level Estimated
Thu 04:50:00 PM 40.4936 -3.5668 150° Southeast  Level Estimated
Thu 04:51:00 PM 40.4936 -3.5668 217° Southwest  Level Estimated
Thu 04:52:00 PM 40.4936 -3.5668 217° Southwest  Level Estimated
Thu 04:53:00 PM 40.4936 -3.5668 217° Southwest  Level Estimated
Thu 04:54:00 PM 40.4936 -3.5668 217° Southwest  Level Estimated
Thu 04:55:00 PM 40.4936 -3.5668 217° Southwest  Level Estimated
Thu 04:56:00 PM 40.4936 -3.5668 217° Southwest  Level Estimated
Thu 04:57:00 PM 40.4936 -3.5668 217° Southwest  Level Estimated
Thu 04:58:00 PM 40.4936 -3.5668 217° Southwest  Level Estimated
Thu 04:59:00 PM 40.4936 -3.5668 217° Southwest  Level Estimated
Thu 05:00:00 PM 40.4936 -3.5668 217° Southwest  Level Estimated
Thu 05:01:00 PM 40.4936 -3.5668 217° Southwest  Level Estimated
Thu 05:02:00 PM 40.4936 -3.5668 217° Southwest  Level Estimated
Thu 05:03:00 PM 40.4936 -3.5668 217° Southwest  Level Estimated
Thu 05:04:00 PM 40.4936 -3.5668 217° Southwest  Level Estimated
Thu 05:05:00 PM 40.4936 -3.5668 217° Southwest  Level Estimated

Login

Don't have an account? Register now (free) for customized features, flight alerts, and more!